Time;durP1;ratioP1;P1;durP2;ratioP2;P2;SDS_P1;SDS_P2;PMS_P1;PMS_P2;Temp;Humidity;BMP_temperature;BMP_pressure;BME280_temperature;BME280_humidity;BME280_pressure;Samples;Min_cycle;Max_cycle;Signal;HPM_P1;HPM_P2
2022/05/06 00:01:38;;;;;;;5.95;4.30;;;;;;;;;;4990328;28;20139;-76
2022/05/06 00:04:05;;;;;;;8.75;4.60;;;;;;;;;;4991182;28;20133;-76
2022/05/06 00:06:32;;;;;;;5.10;4.25;;;;;;;;;;5008985;28;20065;-77
2022/05/06 00:08:57;;;;;;;6.10;4.30;;;;;;;;;;4987736;28;20431;-75
2022/05/06 00:11:23;;;;;;;5.05;3.90;;;;;;;;;;4990652;28;20141;-77
2022/05/06 00:13:52;;;;;;;6.97;3.72;;;;;;;;;;4990134;28;20042;-77
2022/05/06 00:16:19;;;;;;;6.63;3.70;;;;;;;;;;4991950;28;20049;-77
2022/05/06 00:18:44;;;;;;;8.48;4.88;;;;;;;;;;4990957;28;20022;-75
2022/05/06 00:21:10;;;;;;;4.80;3.63;;;;;;;;;;4992073;28;20034;-77
2022/05/06 00:23:35;;;;;;;7.57;3.67;;;;;;;;;;4990916;28;20030;-77
2022/05/06 00:26:03;;;;;;;4.90;3.58;;;;;;;;;;4990500;28;20030;-77
2022/05/06 00:28:28;;;;;;;5.15;3.45;;;;;;;;;;4992574;28;20410;-79
2022/05/06 00:30:54;;;;;;;5.90;3.55;;;;;;;;;;4990740;28;20030;-76
2022/05/06 00:33:24;;;;;;;5.28;3.42;;;;;;;;;;4991742;28;20332;-78
2022/05/06 00:35:55;;;;;;;4.82;3.58;;;;;;;;;;4989309;28;20428;-76
2022/05/06 00:38:21;;;;;;;6.20;3.38;;;;;;;;;;5002658;28;20062;-78
2022/05/06 00:40:46;;;;;;;17.45;3.70;;;;;;;;;;4978605;28;20068;-79
2022/05/06 00:43:12;;;;;;;5.65;3.22;;;;;;;;;;4991430;28;20061;-78
2022/05/06 00:45:54;;;;;;;5.78;3.15;;;;;;;;;;4994034;28;20149;-77
2022/05/06 00:48:28;;;;;;;4.68;3.53;;;;;;;;;;5006730;28;20073;-77
2022/05/06 00:50:58;;;;;;;5.72;3.60;;;;;;;;;;4992003;28;20066;-78
2022/05/06 00:53:24;;;;;;;7.40;3.95;;;;;;;;;;4989894;28;20093;-76
2022/05/06 00:55:51;;;;;;;6.15;3.78;;;;;;;;;;4991737;28;20422;-77
2022/05/06 00:58:18;;;;;;;8.65;3.72;;;;;;;;;;4989469;28;20050;-76
2022/05/06 01:00:44;;;;;;;9.18;3.90;;;;;;;;;;4975324;28;20133;-76
2022/05/06 01:03:10;;;;;;;4.82;3.47;;;;;;;;;;4989232;28;20097;-76
2022/05/06 01:05:35;;;;;;;6.72;3.25;;;;;;;;;;4993565;28;20042;-76
2022/05/06 01:08:02;;;;;;;6.60;3.65;;;;;;;;;;4988879;28;20085;-76
2022/05/06 01:10:27;;;;;;;4.90;3.50;;;;;;;;;;4989641;28;20053;-77
2022/05/06 01:12:53;;;;;;;7.60;3.90;;;;;;;;;;5005494;28;20034;-75
2022/05/06 01:15:25;;;;;;;8.13;3.60;;;;;;;;;;4990472;28;20061;-75
2022/05/06 01:17:52;;;;;;;6.32;3.65;;;;;;;;;;4988518;28;20045;-74
2022/05/06 01:20:19;;;;;;;5.68;3.58;;;;;;;;;;4990296;28;20091;-75
2022/05/06 01:22:46;;;;;;;6.35;3.60;;;;;;;;;;4991374;28;20110;-76
2022/05/06 01:25:12;;;;;;;5.88;3.60;;;;;;;;;;4989884;28;20038;-77
2022/05/06 01:27:44;;;;;;;6.63;4.00;;;;;;;;;;4975456;28;20502;-76
2022/05/06 01:30:12;;;;;;;9.48;3.58;;;;;;;;;;4988151;28;20073;-76
2022/05/06 01:32:38;;;;;;;5.32;3.63;;;;;;;;;;5007679;28;20062;-77
2022/05/06 01:35:05;;;;;;;6.13;3.75;;;;;;;;;;4990687;28;20088;-76
2022/05/06 01:37:34;;;;;;;6.18;3.67;;;;;;;;;;4989139;28;20042;-76
2022/05/06 01:40:01;;;;;;;7.22;4.07;;;;;;;;;;4989071;28;20097;-76
2022/05/06 01:42:29;;;;;;;6.43;4.43;;;;;;;;;;4989927;28;20023;-74
2022/05/06 01:44:56;;;;;;;8.30;4.28;;;;;;;;;;5005719;28;20030;-77
2022/05/06 01:47:27;;;;;;;6.63;3.78;;;;;;;;;;4990139;28;20037;-75
2022/05/06 01:49:58;;;;;;;6.43;3.88;;;;;;;;;;4989646;28;20058;-74
2022/05/06 01:52:24;;;;;;;7.15;3.47;;;;;;;;;;4989532;28;20033;-76
2022/05/06 01:54:50;;;;;;;8.98;4.03;;;;;;;;;;4987569;28;20042;-76
2022/05/06 01:57:15;;;;;;;8.57;3.72;;;;;;;;;;4988367;28;20042;-77
2022/05/06 01:59:41;;;;;;;7.22;3.50;;;;;;;;;;5002635;28;20026;-75
2022/05/06 02:02:06;;;;;;;7.38;3.95;;;;;;;;;;4987305;28;20065;-76
2022/05/06 02:07:16;;;;;;;6.88;3.83;;;;;;;;;;4989524;28;20045;-76
2022/05/06 02:09:41;;;;;;;6.30;3.70;;;;;;;;;;4989676;28;20037;-76
2022/05/06 02:12:07;;;;;;;7.72;3.88;;;;;;;;;;4989719;28;20042;-76
2022/05/06 02:14:36;;;;;;;8.55;3.78;;;;;;;;;;4986768;28;20731;-76
2022/05/06 02:17:01;;;;;;;8.63;4.30;;;;;;;;;;4987724;28;20035;-75
2022/05/06 02:19:27;;;;;;;10.35;3.50;;;;;;;;;;4987462;28;20093;-75
2022/05/06 02:21:52;;;;;;;9.68;3.60;;;;;;;;;;4990483;28;20417;-77
2022/05/06 02:24:17;;;;;;;7.80;3.20;;;;;;;;;;4988700;28;20046;-77
2022/05/06 02:26:43;;;;;;;12.20;4.00;;;;;;;;;;4989278;28;20038;-77
2022/05/06 02:29:08;;;;;;;6.22;3.33;;;;;;;;;;4991241;28;20073;-77
2022/05/06 02:34:20;;;;;;;4.13;2.70;;;;;;;;;;4988901;28;20045;-77
2022/05/06 02:36:46;;;;;;;11.00;3.45;;;;;;;;;;4989606;28;20031;-77
2022/05/06 02:39:12;;;;;;;5.45;3.05;;;;;;;;;;4982685;28;20034;-78
2022/05/06 02:41:37;;;;;;;8.07;3.08;;;;;;;;;;5001946;28;20512;-77
2022/05/06 02:44:04;;;;;;;5.30;2.67;;;;;;;;;;4988785;28;20046;-77
2022/05/06 02:46:30;;;;;;;4.03;2.53;;;;;;;;;;4986730;28;20034;-78
2022/05/06 02:48:56;;;;;;;6.93;2.95;;;;;;;;;;4984259;28;20030;-78
2022/05/06 02:51:21;;;;;;;4.22;2.33;;;;;;;;;;4988549;28;20433;-78
2022/05/06 02:53:47;;;;;;;5.00;2.60;;;;;;;;;;4988397;28;20114;-78
2022/05/06 02:56:12;;;;;;;4.63;2.30;;;;;;;;;;4988459;28;20413;-78
2022/05/06 02:58:37;;;;;;;4.15;2.38;;;;;;;;;;4988373;28;20035;-78
2022/05/06 03:01:03;;;;;;;6.95;3.03;;;;;;;;;;4985094;28;20505;-77
2022/05/06 03:03:28;;;;;;;3.75;2.28;;;;;;;;;;4987252;28;20030;-78
2022/05/06 03:05:54;;;;;;;4.95;2.55;;;;;;;;;;4987493;28;20545;-78
2022/05/06 03:08:19;;;;;;;5.20;2.30;;;;;;;;;;4989232;28;20054;-78
2022/05/06 03:10:45;;;;;;;5.57;2.38;;;;;;;;;;4987869;28;20053;-78
2022/05/06 03:13:10;;;;;;;6.57;2.42;;;;;;;;;;4988279;28;20037;-78
2022/05/06 03:15:35;;;;;;;4.07;2.42;;;;;;;;;;4988094;28;20550;-78
2022/05/06 03:18:01;;;;;;;6.40;2.45;;;;;;;;;;5001126;28;20058;-78
2022/05/06 03:20:28;;;;;;;6.40;2.33;;;;;;;;;;4988194;28;20119;-78
2022/05/06 03:22:53;;;;;;;6.43;2.33;;;;;;;;;;4988257;28;20052;-77
2022/05/06 03:25:20;;;;;;;4.35;2.67;;;;;;;;;;4988737;28;20581;-76
2022/05/06 03:30:47;;;;;;;3.60;1.98;;;;;;;;;;4967664;28;20079;-75
2022/05/06 03:33:15;;;;;;;2.75;2.20;;;;;;;;;;4986563;28;20049;-76
2022/05/06 03:35:40;;;;;;;4.10;2.13;;;;;;;;;;4989232;28;20045;-75
2022/05/06 03:38:06;;;;;;;4.03;2.45;;;;;;;;;;4991507;28;20042;-75
2022/05/06 03:40:33;;;;;;;3.60;2.40;;;;;;;;;;4989796;28;20038;-75
2022/05/06 03:42:59;;;;;;;2.80;2.08;;;;;;;;;;4990809;28;20049;-75
2022/05/06 03:45:25;;;;;;;7.40;3.75;;;;;;;;;;4990005;28;20478;-74
2022/05/06 03:47:50;;;;;;;5.72;3.55;;;;;;;;;;4988834;28;20038;-77
2022/05/06 03:53:00;;;;;;;3.35;2.20;;;;;;;;;;4991549;28;20124;-77
2022/05/06 03:55:26;;;;;;;3.72;2.13;;;;;;;;;;4991000;28;20062;-75
2022/05/06 03:57:51;;;;;;;4.80;2.40;;;;;;;;;;5004256;28;20050;-75
2022/05/06 04:00:19;;;;;;;6.93;2.60;;;;;;;;;;4989795;28;20110;-76
2022/05/06 04:02:45;;;;;;;4.45;2.53;;;;;;;;;;4988300;28;20547;-76
2022/05/06 04:05:10;;;;;;;5.18;2.20;;;;;;;;;;4989286;28;20105;-77
2022/05/06 04:07:36;;;;;;;6.65;2.58;;;;;;;;;;4990068;28;20035;-74
2022/05/06 04:10:02;;;;;;;3.85;2.25;;;;;;;;;;5004843;28;20018;-75
2022/05/06 04:12:28;;;;;;;5.72;2.67;;;;;;;;;;4990653;28;20610;-76
2022/05/06 04:14:54;;;;;;;4.00;2.88;;;;;;;;;;5005335;28;20455;-75
2022/05/06 04:17:20;;;;;;;5.72;2.50;;;;;;;;;;4988915;28;20078;-76
2022/05/06 04:25:16;;;;;;;6.22;2.60;;;;;;;;;;4988753;28;20129;-76
2022/05/06 04:27:42;;;;;;;4.85;2.45;;;;;;;;;;4990754;28;20501;-74
2022/05/06 04:30:08;;;;;;;2.95;2.35;;;;;;;;;;4990011;28;20042;-77
2022/05/06 04:32:34;;;;;;;3.17;2.40;;;;;;;;;;5002971;28;20049;-78
2022/05/06 04:35:00;;;;;;;7.72;3.08;;;;;;;;;;5003881;28;20049;-75
2022/05/06 04:37:26;;;;;;;6.38;2.45;;;;;;;;;;5005034;28;20030;-76
2022/05/06 04:39:51;;;;;;;3.38;2.70;;;;;;;;;;4990057;28;20526;-77
2022/05/06 04:42:18;;;;;;;4.97;2.53;;;;;;;;;;4990185;28;20086;-76
2022/05/06 04:44:43;;;;;;;6.53;2.45;;;;;;;;;;4990105;28;20041;-76
2022/05/06 04:47:09;;;;;;;4.68;2.40;;;;;;;;;;5005006;28;20038;-76
2022/05/06 04:49:34;;;;;;;5.15;2.78;;;;;;;;;;4990074;28;20088;-75
2022/05/06 04:52:00;;;;;;;3.53;2.55;;;;;;;;;;4989864;28;20105;-75
2022/05/06 04:54:25;;;;;;;5.18;2.70;;;;;;;;;;4990200;28;20034;-76
2022/05/06 04:56:52;;;;;;;4.68;3.15;;;;;;;;;;4990598;28;20466;-77
2022/05/06 04:59:17;;;;;;;4.95;2.72;;;;;;;;;;4988213;28;20045;-76
2022/05/06 05:01:42;;;;;;;4.18;2.80;;;;;;;;;;5004414;28;20490;-76
2022/05/06 05:04:08;;;;;;;5.57;2.60;;;;;;;;;;4987111;28;20034;-74
2022/05/06 05:06:33;;;;;;;5.18;2.90;;;;;;;;;;5004516;28;20030;-73
2022/05/06 05:08:59;;;;;;;5.18;2.85;;;;;;;;;;4987071;28;20141;-72
2022/05/06 05:11:25;;;;;;;6.03;2.70;;;;;;;;;;4988459;28;20038;-72
2022/05/06 05:13:50;;;;;;;4.35;2.88;;;;;;;;;;4988197;28;20488;-73
2022/05/06 05:16:16;;;;;;;3.92;2.90;;;;;;;;;;4986662;28;20045;-71
2022/05/06 05:18:41;;;;;;;5.53;3.33;;;;;;;;;;4989408;28;20105;-72
2022/05/06 05:21:07;;;;;;;4.72;3.08;;;;;;;;;;4988814;28;20049;-74
2022/05/06 05:23:32;;;;;;;14.05;3.25;;;;;;;;;;4988157;28;20100;-73
2022/05/06 05:25:58;;;;;;;4.15;3.28;;;;;;;;;;4988197;28;20042;-74
2022/05/06 05:28:23;;;;;;;9.63;4.55;;;;;;;;;;4988990;28;20661;-73
2022/05/06 05:30:48;;;;;;;6.45;3.70;;;;;;;;;;4988310;28;20030;-72
2022/05/06 05:33:14;;;;;;;8.60;3.58;;;;;;;;;;4988427;28;20035;-73
2022/05/06 05:35:40;;;;;;;6.45;3.97;;;;;;;;;;4988781;28;20039;-76
2022/05/06 05:38:05;;;;;;;5.82;3.65;;;;;;;;;;4987492;28;20077;-72
2022/05/06 05:40:31;;;;;;;5.43;3.63;;;;;;;;;;4985402;28;20085;-72
2022/05/06 05:42:57;;;;;;;5.00;3.50;;;;;;;;;;4988049;28;20530;-74
2022/05/06 05:48:21;;;;;;;5.88;3.67;;;;;;;;;;4989331;28;20061;-74
2022/05/06 05:50:48;;;;;;;7.43;3.90;;;;;;;;;;4986877;28;20037;-73
2022/05/06 05:53:14;;;;;;;8.20;4.35;;;;;;;;;;4988004;28;20093;-74
2022/05/06 05:55:39;;;;;;;7.55;3.92;;;;;;;;;;4986240;28;20038;-74
2022/05/06 05:58:05;;;;;;;10.20;4.47;;;;;;;;;;4989338;28;20466;-73
2022/05/06 06:00:30;;;;;;;8.95;4.18;;;;;;;;;;4988218;28;20049;-74
2022/05/06 06:02:56;;;;;;;13.07;4.80;;;;;;;;;;5001879;28;20699;-74
2022/05/06 06:05:22;;;;;;;8.13;4.25;;;;;;;;;;4988592;28;20042;-74
2022/05/06 06:07:48;;;;;;;7.32;4.63;;;;;;;;;;4984740;28;20117;-73
2022/05/06 06:10:13;;;;;;;8.45;4.22;;;;;;;;;;4987869;28;20142;-74
2022/05/06 06:12:39;;;;;;;8.82;4.50;;;;;;;;;;4988502;28;20030;-73
2022/05/06 06:15:05;;;;;;;8.13;4.30;;;;;;;;;;4988046;28;20066;-74
2022/05/06 06:17:31;;;;;;;9.43;4.38;;;;;;;;;;4988985;28;20034;-73
2022/05/06 06:19:56;;;;;;;12.95;4.35;;;;;;;;;;4989662;28;20041;-73
2022/05/06 06:22:22;;;;;;;7.97;4.35;;;;;;;;;;4988545;28;20382;-73
2022/05/06 06:24:48;;;;;;;9.90;4.32;;;;;;;;;;4990338;28;20034;-74
2022/05/06 06:27:14;;;;;;;11.55;4.65;;;;;;;;;;5003687;28;20043;-74
2022/05/06 06:29:39;;;;;;;12.63;3.95;;;;;;;;;;4990633;28;20380;-72
2022/05/06 06:32:05;;;;;;;10.52;4.63;;;;;;;;;;4987684;28;20043;-74
2022/05/06 06:34:31;;;;;;;8.35;4.93;;;;;;;;;;4988843;28;20502;-75
2022/05/06 06:36:56;;;;;;;17.15;7.97;;;;;;;;;;4987170;28;20045;-75
2022/05/06 06:39:21;;;;;;;8.05;5.03;;;;;;;;;;4988704;28;20027;-75
2022/05/06 06:41:47;;;;;;;9.80;5.82;;;;;;;;;;4987135;28;20035;-76
2022/05/06 06:44:12;;;;;;;9.00;4.38;;;;;;;;;;4986205;28;20442;-76
2022/05/06 06:46:38;;;;;;;10.05;3.88;;;;;;;;;;4989176;28;20054;-75
2022/05/06 06:49:03;;;;;;;7.03;4.05;;;;;;;;;;4988086;28;20490;-75
2022/05/06 06:51:29;;;;;;;7.95;3.83;;;;;;;;;;4985428;28;20112;-72
2022/05/06 06:53:54;;;;;;;6.25;4.57;;;;;;;;;;4987970;28;20498;-75
2022/05/06 06:56:22;;;;;;;8.27;3.75;;;;;;;;;;4988354;28;20042;-74
2022/05/06 06:58:48;;;;;;;13.40;3.58;;;;;;;;;;4986206;28;20042;-76
2022/05/06 07:01:13;;;;;;;5.63;3.58;;;;;;;;;;4985933;28;20042;-76
2022/05/06 07:03:39;;;;;;;8.88;3.90;;;;;;;;;;4988158;28;20033;-73
2022/05/06 07:14:17;;;;;;;8.75;3.88;;;;;;;;;;4990808;28;20056;-74
2022/05/06 07:16:42;;;;;;;12.65;3.55;;;;;;;;;;4991919;28;20038;-75
2022/05/06 07:19:07;;;;;;;12.48;2.97;;;;;;;;;;4991238;28;20121;-74
2022/05/06 07:21:33;;;;;;;11.52;3.40;;;;;;;;;;4992149;28;20037;-73
2022/05/06 07:23:59;;;;;;;8.43;2.67;;;;;;;;;;4990255;28;20042;-72
2022/05/06 07:26:42;;;;;;;14.35;2.58;;;;;;;;;;4991598;28;20051;-75
2022/05/06 07:29:07;;;;;;;12.98;2.30;;;;;;;;;;4990701;28;20034;-73
2022/05/06 07:31:33;;;;;;;10.40;1.80;;;;;;;;;;4991102;28;20045;-74
2022/05/06 07:33:58;;;;;;;5.20;1.55;;;;;;;;;;4990790;28;20120;-73
2022/05/06 07:36:24;;;;;;;6.03;1.55;;;;;;;;;;4990285;28;20101;-73
2022/05/06 07:38:50;;;;;;;5.40;1.40;;;;;;;;;;4990448;28;20054;-74
2022/05/06 07:41:16;;;;;;;4.32;1.20;;;;;;;;;;4990444;28;20108;-73
2022/05/06 07:43:41;;;;;;;4.97;1.30;;;;;;;;;;4991531;28;20042;-73
2022/05/06 07:46:09;;;;;;;5.90;1.40;;;;;;;;;;4989306;28;20558;-73
2022/05/06 07:48:35;;;;;;;2.00;1.20;;;;;;;;;;4990884;28;20379;-76
2022/05/06 07:51:00;;;;;;;2.30;1.17;;;;;;;;;;4989128;28;20030;-74
2022/05/06 07:53:26;;;;;;;4.80;1.10;;;;;;;;;;4990602;28;20494;-74
2022/05/06 07:55:51;;;;;;;4.05;2.20;;;;;;;;;;4988255;28;20462;-75
2022/05/06 07:58:17;;;;;;;3.33;1.13;;;;;;;;;;4991945;28;20034;-73
2022/05/06 08:00:42;;;;;;;6.20;1.30;;;;;;;;;;4994634;28;20742;-72
2022/05/06 08:05:57;;;;;;;5.22;1.40;;;;;;;;;;4988318;28;20410;-74
2022/05/06 08:08:25;;;;;;;1.83;1.00;;;;;;;;;;4989977;28;20166;-73
2022/05/06 08:10:51;;;;;;;2.00;1.25;;;;;;;;;;4989246;28;20045;-74
2022/05/06 08:13:17;;;;;;;2.97;1.20;;;;;;;;;;4990385;28;20109;-74
2022/05/06 08:15:43;;;;;;;2.53;1.20;;;;;;;;;;4991295;28;20030;-75
2022/05/06 08:18:09;;;;;;;2.63;1.15;;;;;;;;;;4995104;28;20038;-75
2022/05/06 08:20:35;;;;;;;3.83;1.20;;;;;;;;;;5006331;28;20561;-74
2022/05/06 08:23:00;;;;;;;2.28;1.00;;;;;;;;;;4990920;28;20034;-74
2022/05/06 08:25:26;;;;;;;1.75;0.90;;;;;;;;;;4986868;28;20165;-75
2022/05/06 08:27:51;;;;;;;4.05;1.08;;;;;;;;;;4989345;28;20072;-72
2022/05/06 08:30:17;;;;;;;2.80;1.08;;;;;;;;;;4989951;28;20038;-74
2022/05/06 08:32:43;;;;;;;2.38;0.75;;;;;;;;;;5004659;28;20037;-75
2022/05/06 08:35:09;;;;;;;1.10;0.70;;;;;;;;;;4990473;28;20255;-77
2022/05/06 08:37:40;;;;;;;2.03;0.70;;;;;;;;;;4991164;28;20042;-73
2022/05/06 08:40:07;;;;;;;2.40;0.70;;;;;;;;;;4989809;28;20113;-72
2022/05/06 08:42:34;;;;;;;1.00;0.75;;;;;;;;;;4989872;28;20030;-73
2022/05/06 08:53:11;;;;;;;1.27;0.80;;;;;;;;;;4989232;28;20053;-74
2022/05/06 08:55:37;;;;;;;2.15;0.85;;;;;;;;;;4989887;28;20026;-74
2022/05/06 08:58:05;;;;;;;3.03;0.77;;;;;;;;;;4989552;28;20031;-74
2022/05/06 09:00:31;;;;;;;2.15;0.95;;;;;;;;;;4988807;28;20022;-74
2022/05/06 09:02:56;;;;;;;2.28;0.90;;;;;;;;;;4988817;28;20104;-76
2022/05/06 09:05:22;;;;;;;1.50;0.85;;;;;;;;;;4987649;28;20034;-75
2022/05/06 09:07:55;;;;;;;1.48;0.98;;;;;;;;;;4987991;28;20042;-73
2022/05/06 09:10:21;;;;;;;2.63;0.90;;;;;;;;;;4985755;28;20509;-75
2022/05/06 09:12:46;;;;;;;2.95;1.08;;;;;;;;;;5004235;28;20026;-75
2022/05/06 09:17:58;;;;;;;3.50;0.90;;;;;;;;;;4989063;28;20488;-75
2022/05/06 09:20:25;;;;;;;1.60;1.00;;;;;;;;;;4984134;28;20030;-74
2022/05/06 09:22:51;;;;;;;1.67;0.98;;;;;;;;;;4972897;28;20035;-75
2022/05/06 09:25:36;;;;;;;1.88;1.02;;;;;;;;;;4989923;28;20548;-75
2022/05/06 09:28:03;;;;;;;2.90;1.20;;;;;;;;;;4987509;28;20034;-74
2022/05/06 09:30:28;;;;;;;2.08;1.00;;;;;;;;;;4985750;28;20062;-73
2022/05/06 09:32:54;;;;;;;1.50;0.95;;;;;;;;;;4987141;28;20066;-75
2022/05/06 09:35:19;;;;;;;1.30;0.90;;;;;;;;;;4987415;28;20045;-72
2022/05/06 09:37:49;;;;;;;3.88;1.10;;;;;;;;;;4986584;28;20035;-72
2022/05/06 09:40:20;;;;;;;1.45;0.77;;;;;;;;;;4988058;28;20398;-72
2022/05/06 09:42:54;;;;;;;1.35;0.90;;;;;;;;;;4987707;28;20037;-71
2022/05/06 09:45:34;;;;;;;2.20;0.93;;;;;;;;;;4986256;28;20050;-73
2022/05/06 09:48:01;;;;;;;3.25;1.00;;;;;;;;;;4986475;28;20046;-72
2022/05/06 09:50:39;;;;;;;2.95;0.82;;;;;;;;;;4984650;28;20034;-73
2022/05/06 09:53:07;;;;;;;3.13;0.80;;;;;;;;;;4988851;28;20035;-74
2022/05/06 09:55:35;;;;;;;3.70;1.13;;;;;;;;;;4987419;28;20043;-73
2022/05/06 09:58:00;;;;;;;2.60;0.90;;;;;;;;;;4986781;28;20089;-72
2022/05/06 10:00:29;;;;;;;3.58;1.00;;;;;;;;;;4985256;28;20022;-73
2022/05/06 10:02:56;;;;;;;1.45;1.13;;;;;;;;;;4986882;28;20116;-73
2022/05/06 10:05:23;;;;;;;1.40;0.80;;;;;;;;;;4986841;28;20172;-73
2022/05/06 10:07:51;;;;;;;5.60;1.00;;;;;;;;;;4986968;28;20037;-73
2022/05/06 10:10:29;;;;;;;2.22;0.82;;;;;;;;;;4985519;28;20128;-74
2022/05/06 10:13:01;;;;;;;1.83;0.80;;;;;;;;;;4985429;28;21029;-71
2022/05/06 10:15:28;;;;;;;2.08;0.77;;;;;;;;;;5003109;28;20458;-71
2022/05/06 10:17:59;;;;;;;1.48;0.80;;;;;;;;;;4986291;28;20031;-73
2022/05/06 10:20:34;;;;;;;1.85;1.10;;;;;;;;;;4984274;28;20414;-72
2022/05/06 10:23:07;;;;;;;2.17;1.00;;;;;;;;;;4987746;28;20462;-73
2022/05/06 10:25:41;;;;;;;2.22;0.85;;;;;;;;;;4988223;28;20169;-72
2022/05/06 10:34:14;;;;;;;0.77;0.60;;;;;;;;;;4987755;28;20634;-73
2022/05/06 10:36:50;;;;;;;2.38;0.85;;;;;;;;;;4992417;28;20033;-72
2022/05/06 10:39:24;;;;;;;1.98;0.68;;;;;;;;;;4987429;28;20053;-73
2022/05/06 10:42:00;;;;;;;1.85;0.95;;;;;;;;;;4989429;28;20117;-75
2022/05/06 10:44:49;;;;;;;2.65;1.00;;;;;;;;;;4988311;28;20547;-74
2022/05/06 10:47:18;;;;;;;0.80;0.70;;;;;;;;;;4988529;28;20038;-73
2022/05/06 10:49:51;;;;;;;8.32;0.90;;;;;;;;;;4986521;28;20066;-73
2022/05/06 10:52:20;;;;;;;1.45;0.93;;;;;;;;;;4987424;28;20042;-73
2022/05/06 10:54:52;;;;;;;3.90;0.90;;;;;;;;;;4986867;28;20030;-74
2022/05/06 10:57:19;;;;;;;5.18;1.00;;;;;;;;;;4986465;28;20070;-75
2022/05/06 10:59:56;;;;;;;8.10;1.20;;;;;;;;;;4986687;28;20537;-74
2022/05/06 11:02:29;;;;;;;2.58;1.02;;;;;;;;;;4986948;28;20450;-74
2022/05/06 11:04:56;;;;;;;8.23;1.35;;;;;;;;;;4988056;28;20077;-74
2022/05/06 11:07:22;;;;;;;2.65;1.00;;;;;;;;;;4986600;28;20046;-72
2022/05/06 11:09:48;;;;;;;2.08;0.85;;;;;;;;;;4986451;28;20030;-74
2022/05/06 11:12:39;;;;;;;2.03;1.00;;;;;;;;;;4986002;28;20058;-74
2022/05/06 11:15:14;;;;;;;4.78;1.00;;;;;;;;;;4985412;28;20081;-74
2022/05/06 11:17:41;;;;;;;1.48;0.98;;;;;;;;;;4987386;28;20097;-71
2022/05/06 11:20:26;;;;;;;2.47;1.20;;;;;;;;;;4985849;28;20030;-75
2022/05/06 11:22:58;;;;;;;4.40;1.05;;;;;;;;;;5000142;28;20038;-74
2022/05/06 11:25:26;;;;;;;3.55;1.27;;;;;;;;;;4984945;28;20038;-77
2022/05/06 11:27:53;;;;;;;4.20;1.10;;;;;;;;;;5001757;28;21411;-73
2022/05/06 11:30:20;;;;;;;5.63;0.90;;;;;;;;;;5000746;28;20050;-70
2022/05/06 11:32:48;;;;;;;2.80;0.90;;;;;;;;;;4987327;28;20042;-73
2022/05/06 11:35:20;;;;;;;4.18;0.77;;;;;;;;;;4987019;28;20039;-74
2022/05/06 11:37:45;;;;;;;2.75;1.00;;;;;;;;;;4985766;28;20038;-74
2022/05/06 11:42:51;;;;;;;11.60;1.08;;;;;;;;;;4985574;28;20031;-73
2022/05/06 11:48:06;;;;;;;1.27;0.65;;;;;;;;;;4991090;28;20073;-73
2022/05/06 11:50:33;;;;;;;2.50;0.90;;;;;;;;;;4991074;28;20042;-73
2022/05/06 11:52:59;;;;;;;4.18;1.08;;;;;;;;;;4991634;28;20398;-73
2022/05/06 11:55:25;;;;;;;4.00;0.90;;;;;;;;;;4992402;28;20121;-74
2022/05/06 11:57:51;;;;;;;1.58;0.68;;;;;;;;;;4992429;28;20026;-74
2022/05/06 12:00:17;;;;;;;2.92;0.80;;;;;;;;;;4991488;28;20580;-72
2022/05/06 12:02:51;;;;;;;2.30;0.95;;;;;;;;;;4987732;28;20049;-75
2022/05/06 12:05:18;;;;;;;8.13;1.25;;;;;;;;;;4987139;28;20065;-73
2022/05/06 12:07:48;;;;;;;5.13;0.98;;;;;;;;;;4990283;28;20034;-74
2022/05/06 12:10:57;;;;;;;1.10;0.90;;;;;;;;;;4986779;28;20073;-72
2022/05/06 12:13:30;;;;;;;2.45;0.90;;;;;;;;;;4905107;29;20048;-73
2022/05/06 12:16:07;;;;;;;6.10;1.23;;;;;;;;;;4981334;28;20041;-72
2022/05/06 12:18:33;;;;;;;2.45;0.80;;;;;;;;;;5005035;28;20715;-74
2022/05/06 12:21:00;;;;;;;2.97;1.30;;;;;;;;;;4990394;28;20207;-74
2022/05/06 12:23:28;;;;;;;2.83;1.10;;;;;;;;;;4988399;28;20035;-70
2022/05/06 12:25:55;;;;;;;2.65;0.90;;;;;;;;;;4989268;28;20035;-73
2022/05/06 12:28:22;;;;;;;1.98;1.00;;;;;;;;;;4991842;28;20536;-74
2022/05/06 12:30:58;;;;;;;4.88;0.90;;;;;;;;;;5035173;23;20108;-52
2022/05/06 12:33:36;;;;;;;1.20;1.05;;;;;;;;;;4990237;28;20055;-53
2022/05/06 12:36:04;;;;;;;3.20;1.00;;;;;;;;;;4998204;28;20035;-56
2022/05/06 12:38:38;;;;;;;3.20;1.02;;;;;;;;;;4990930;28;20046;-53
2022/05/06 12:41:26;;;;;;;2.80;1.10;;;;;;;;;;4996518;28;20052;-55
2022/05/06 12:43:57;;;;;;;3.10;0.85;;;;;;;;;;4995931;28;20054;-55
2022/05/06 12:46:41;;;;;;;3.45;1.10;;;;;;;;;;4992211;28;20054;-55
2022/05/06 12:51:50;;;;;;;2.75;0.80;;;;;;;;;;4994141;28;20029;-54
2022/05/06 12:54:16;;;;;;;3.85;1.02;;;;;;;;;;4984668;28;20034;-51
2022/05/06 12:56:41;;;;;;;3.35;0.98;;;;;;;;;;4987151;28;20226;-60
2022/05/06 12:59:08;;;;;;;1.35;1.00;;;;;;;;;;4986883;28;20072;-58
2022/05/06 13:01:34;;;;;;;3.55;1.20;;;;;;;;;;4986698;28;20054;-59
2022/05/06 13:04:00;;;;;;;7.85;1.40;;;;;;;;;;4990149;28;20084;-61
2022/05/06 13:06:26;;;;;;;2.67;1.10;;;;;;;;;;4990811;28;20034;-59
2022/05/06 13:08:52;;;;;;;2.28;0.70;;;;;;;;;;4990988;28;20500;-59
2022/05/06 13:11:17;;;;;;;2.25;1.23;;;;;;;;;;4988640;28;20069;-59
2022/05/06 13:13:43;;;;;;;2.35;0.90;;;;;;;;;;4991661;28;20042;-59
2022/05/06 13:16:09;;;;;;;4.90;1.00;;;;;;;;;;4990276;28;20058;-59
2022/05/06 13:18:36;;;;;;;2.10;0.90;;;;;;;;;;4995719;28;20038;-59
2022/05/06 13:21:01;;;;;;;1.73;1.00;;;;;;;;;;4995783;28;20505;-59
2022/05/06 13:23:27;;;;;;;2.35;1.00;;;;;;;;;;4995867;28;20046;-60
2022/05/06 13:25:52;;;;;;;5.03;1.17;;;;;;;;;;4997774;28;20042;-59
2022/05/06 13:28:18;;;;;;;4.82;1.02;;;;;;;;;;4999862;28;20118;-59
2022/05/06 13:30:43;;;;;;;1.55;0.90;;;;;;;;;;4979623;28;20114;-59
2022/05/06 13:33:09;;;;;;;2.90;1.67;;;;;;;;;;4986416;28;20053;-59
2022/05/06 13:35:34;;;;;;;2.30;0.95;;;;;;;;;;4985378;28;20092;-60
2022/05/06 13:38:00;;;;;;;4.40;1.15;;;;;;;;;;4990567;28;20109;-60
2022/05/06 13:40:26;;;;;;;2.60;1.00;;;;;;;;;;4988903;28;20510;-59
2022/05/06 13:42:52;;;;;;;2.25;0.90;;;;;;;;;;4990261;28;20046;-60
2022/05/06 13:45:17;;;;;;;3.42;1.00;;;;;;;;;;4984678;28;20133;-60
2022/05/06 13:47:43;;;;;;;3.20;0.80;;;;;;;;;;4990198;28;20134;-58
2022/05/06 13:50:09;;;;;;;1.50;1.10;;;;;;;;;;4984332;28;20046;-59
2022/05/06 13:52:35;;;;;;;6.88;1.05;;;;;;;;;;4983950;28;20046;-55
2022/05/06 13:55:04;;;;;;;4.38;1.08;;;;;;;;;;4971935;28;20058;-55
2022/05/06 14:00:16;;;;;;;1.58;0.80;;;;;;;;;;4987884;28;20491;-58
2022/05/06 14:02:45;;;;;;;2.20;1.10;;;;;;;;;;4983850;28;20034;-59
2022/05/06 14:05:10;;;;;;;3.33;1.50;;;;;;;;;;4968676;28;20489;-59
2022/05/06 14:07:50;;;;;;;2.97;1.15;;;;;;;;;;4976658;28;20047;-59
2022/05/06 14:10:15;;;;;;;2.72;0.90;;;;;;;;;;4983180;28;20048;-61
2022/05/06 14:12:41;;;;;;;5.30;1.08;;;;;;;;;;4987209;28;20038;-59
2022/05/06 14:15:07;;;;;;;3.00;1.10;;;;;;;;;;4989347;28;20337;-60
2022/05/06 14:17:32;;;;;;;2.65;0.90;;;;;;;;;;4985090;28;20046;-59
2022/05/06 14:19:58;;;;;;;2.25;0.90;;;;;;;;;;4988415;28;20046;-59
2022/05/06 14:22:24;;;;;;;2.88;1.00;;;;;;;;;;4985881;28;20112;-60
2022/05/06 14:24:50;;;;;;;2.33;0.90;;;;;;;;;;4989521;28;20117;-60
2022/05/06 14:27:17;;;;;;;3.85;0.80;;;;;;;;;;4986234;28;20054;-60
2022/05/06 14:29:45;;;;;;;1.80;0.75;;;;;;;;;;4992880;28;20030;-60
2022/05/06 14:32:11;;;;;;;7.18;1.17;;;;;;;;;;4984660;28;20420;-60
2022/05/06 14:34:37;;;;;;;2.67;0.90;;;;;;;;;;4989492;28;20156;-59
2022/05/06 14:37:02;;;;;;;2.60;0.98;;;;;;;;;;4984667;28;20499;-60
2022/05/06 14:39:28;;;;;;;3.97;0.88;;;;;;;;;;4985333;28;20054;-62
2022/05/06 14:41:53;;;;;;;1.88;1.00;;;;;;;;;;4988633;28;20283;-59
2022/05/06 14:44:19;;;;;;;0.68;0.65;;;;;;;;;;4990396;28;20134;-60
2022/05/06 14:46:44;;;;;;;4.32;1.20;;;;;;;;;;4990665;28;20066;-59
2022/05/06 14:49:10;;;;;;;0.98;0.70;;;;;;;;;;4987339;28;20051;-59
2022/05/06 14:51:35;;;;;;;4.47;0.90;;;;;;;;;;4985132;28;20042;-59
2022/05/06 14:54:02;;;;;;;2.13;0.90;;;;;;;;;;4990173;28;20105;-59
2022/05/06 14:56:27;;;;;;;3.25;0.90;;;;;;;;;;4985216;28;20205;-60
2022/05/06 14:58:53;;;;;;;2.55;0.93;;;;;;;;;;4992959;28;20180;-60
2022/05/06 15:01:18;;;;;;;2.85;1.00;;;;;;;;;;4991019;28;20053;-60
2022/05/06 15:03:44;;;;;;;2.83;1.02;;;;;;;;;;4995652;28;20057;-60
2022/05/06 15:06:12;;;;;;;1.98;1.10;;;;;;;;;;4994348;28;20076;-61
2022/05/06 15:08:39;;;;;;;2.03;1.00;;;;;;;;;;4996725;28;20144;-59
2022/05/06 15:11:04;;;;;;;2.28;1.05;;;;;;;;;;4992456;28;20054;-60
2022/05/06 15:13:30;;;;;;;1.13;0.80;;;;;;;;;;4990816;28;20046;-59
2022/05/06 15:15:56;;;;;;;2.15;1.08;;;;;;;;;;4990737;28;20054;-60
2022/05/06 15:21:14;;;;;;;2.15;0.80;;;;;;;;;;4961592;28;20046;-60
2022/05/06 15:23:46;;;;;;;2.05;0.90;;;;;;;;;;4991930;28;20313;-59
2022/05/06 15:26:15;;;;;;;2.67;0.95;;;;;;;;;;4990852;28;20047;-59
2022/05/06 15:28:41;;;;;;;3.20;0.90;;;;;;;;;;4988520;28;20643;-59
2022/05/06 15:31:10;;;;;;;4.60;1.27;;;;;;;;;;4992883;28;20325;-59
2022/05/06 15:33:36;;;;;;;1.85;0.93;;;;;;;;;;4990465;28;20488;-59
2022/05/06 15:36:02;;;;;;;3.58;0.90;;;;;;;;;;4990817;28;20047;-60
2022/05/06 15:38:30;;;;;;;2.42;0.82;;;;;;;;;;4989626;28;20042;-59
2022/05/06 15:40:55;;;;;;;2.25;0.93;;;;;;;;;;4992193;28;20071;-61
2022/05/06 15:43:21;;;;;;;4.18;0.90;;;;;;;;;;4993611;28;20464;-57
2022/05/06 15:45:46;;;;;;;3.88;1.27;;;;;;;;;;4991576;28;20471;-59